Time;durP1;ratioP1;P1;durP2;ratioP2;P2;SDS_P1;SDS_P2;PMS_P1;PMS_P2;Temp;Humidity;BMP_temperature;BMP_pressure;BME280_temperature;BME280_humidity;BME280_pressure;Samples;Min_cycle;Max_cycle;Signal;HPM_P1;HPM_P2
2022/02/12 00:00:09;;;;;;;16.83;14.30;;;-0.20;99.90;;;;;;5022817;28;20443;-77
2022/02/12 00:02:39;;;;;;;19.63;15.50;;;-0.20;99.90;;;;;;5025766;28;20872;-77
2022/02/12 00:05:06;;;;;;;16.33;14.50;;;-0.20;99.90;;;;;;5030327;28;20439;-77
2022/02/12 00:07:33;;;;;;;15.73;14.13;;;-0.20;99.90;;;;;;5023523;28;20840;-77
2022/02/12 00:10:02;;;;;;;16.87;15.27;;;-0.10;99.90;;;;;;5025549;28;20446;-76
2022/02/12 00:12:29;;;;;;;14.60;13.23;;;-0.10;99.90;;;;;;5010260;28;20487;-78
2022/02/12 00:14:57;;;;;;;15.77;14.27;;;0.00;99.90;;;;;;5022200;28;20946;-78
2022/02/12 00:17:24;;;;;;;15.80;14.30;;;0.00;99.90;;;;;;5023179;28;20479;-77
2022/02/12 00:19:51;;;;;;;16.03;14.33;;;0.00;99.90;;;;;;5025404;28;20807;-77
2022/02/12 00:22:18;;;;;;;15.50;14.13;;;0.00;99.90;;;;;;5021315;28;20476;-77
2022/02/12 00:24:45;;;;;;;15.50;13.87;;;0.00;99.90;;;;;;5025092;28;20853;-77
2022/02/12 00:27:13;;;;;;;14.77;13.23;;;-0.20;99.90;;;;;;5024700;28;20438;-77
2022/02/12 00:29:40;;;;;;;15.50;14.07;;;-0.20;99.90;;;;;;5024913;28;20864;-77
2022/02/12 00:32:08;;;;;;;15.03;13.67;;;-0.30;99.90;;;;;;5022970;28;20454;-77
2022/02/12 00:34:35;;;;;;;17.90;14.93;;;-0.40;99.90;;;;;;5016290;28;20447;-77
2022/02/12 00:37:02;;;;;;;15.40;13.90;;;-0.50;99.90;;;;;;5023368;28;20470;-77
2022/02/12 00:39:29;;;;;;;18.00;15.10;;;-0.50;99.90;;;;;;5021217;28;20500;-77
2022/02/12 00:41:55;;;;;;;16.03;14.53;;;-0.50;99.90;;;;;;5023204;28;20550;-77
2022/02/12 00:44:24;;;;;;;17.27;15.07;;;-0.50;99.90;;;;;;5020493;28;21481;-78
2022/02/12 00:46:50;;;;;;;15.80;14.17;;;-0.50;99.90;;;;;;5025238;28;20463;-77
2022/02/12 00:49:17;;;;;;;14.97;13.43;;;-0.50;99.90;;;;;;5021154;28;20826;-77
2022/02/12 00:51:45;;;;;;;15.20;13.73;;;-0.50;99.90;;;;;;5025433;28;20713;-77
2022/02/12 00:54:11;;;;;;;16.23;14.63;;;-0.60;99.90;;;;;;5021989;28;20477;-78
2022/02/12 00:56:38;;;;;;;16.50;14.23;;;-0.60;99.90;;;;;;5023421;28;20791;-77
2022/02/12 00:59:05;;;;;;;14.90;13.50;;;-0.60;99.90;;;;;;5024270;28;20435;-76
2022/02/12 01:01:34;;;;;;;16.33;14.60;;;-0.70;99.90;;;;;;5019981;28;20518;-77
2022/02/12 01:04:02;;;;;;;18.03;15.17;;;-0.70;99.90;;;;;;5026610;28;20469;-77
2022/02/12 01:06:28;;;;;;;16.23;14.63;;;-0.70;99.90;;;;;;5017497;28;20444;-77
2022/02/12 01:08:56;;;;;;;16.20;14.60;;;-0.80;99.90;;;;;;5025292;28;20457;-77
2022/02/12 01:11:23;;;;;;;16.80;14.97;;;-0.80;99.90;;;;;;5020279;28;20467;-77
2022/02/12 01:13:52;;;;;;;15.93;14.07;;;-0.80;99.90;;;;;;5025637;28;20915;-77
2022/02/12 01:16:19;;;;;;;15.27;13.97;;;-0.90;99.90;;;;;;5021851;28;20557;-76
2022/02/12 01:18:47;;;;;;;17.40;15.77;;;-0.90;99.90;;;;;;5020316;28;20518;-77
2022/02/12 01:21:14;;;;;;;17.17;15.07;;;-0.90;99.90;;;;;;5026041;28;20430;-76
2022/02/12 01:23:41;;;;;;;18.43;14.40;;;-0.90;99.90;;;;;;5020247;28;20474;-77
2022/02/12 01:26:08;;;;;;;19.07;15.03;;;-0.90;99.90;;;;;;5021433;28;20439;-77
2022/02/12 01:28:35;;;;;;;16.13;14.53;;;-1.00;99.90;;;;;;5026329;28;20456;-77
2022/02/12 01:31:02;;;;;;;17.93;16.03;;;-1.00;99.90;;;;;;5020398;28;20432;-77
2022/02/12 01:33:29;;;;;;;17.43;14.73;;;-0.90;99.90;;;;;;5008757;28;20509;-77
2022/02/12 01:35:57;;;;;;;16.30;14.43;;;-1.00;99.90;;;;;;5023133;28;20924;-76
2022/02/12 01:38:27;;;;;;;19.47;15.17;;;-1.00;99.90;;;;;;5022817;28;20463;-77
2022/02/12 01:40:54;;;;;;;16.03;14.53;;;-1.10;99.90;;;;;;5024150;28;20439;-77
2022/02/12 01:43:21;;;;;;;15.83;14.37;;;-1.10;99.90;;;;;;5022764;28;20464;-77
2022/02/12 01:45:48;;;;;;;17.57;15.67;;;-1.10;99.90;;;;;;5022161;28;20442;-76
2022/02/12 01:48:15;;;;;;;16.17;14.57;;;-1.10;99.90;;;;;;5021724;28;20806;-77
2022/02/12 01:50:42;;;;;;;16.73;14.90;;;-1.10;99.90;;;;;;5022186;28;20443;-77
2022/02/12 01:53:12;;;;;;;17.20;15.50;;;-1.10;99.90;;;;;;5021860;28;20467;-77
2022/02/12 01:55:39;;;;;;;17.57;15.87;;;-1.10;99.90;;;;;;5023596;28;20434;-77
2022/02/12 01:58:09;;;;;;;16.43;14.73;;;-1.10;99.90;;;;;;5021274;28;20476;-77
2022/02/12 02:00:37;;;;;;;15.83;14.23;;;-1.10;99.90;;;;;;5022584;28;20828;-77
2022/02/12 02:03:04;;;;;;;20.03;14.97;;;-1.20;99.90;;;;;;5020498;28;20562;-77
2022/02/12 02:05:34;;;;;;;15.23;13.83;;;-1.30;99.90;;;;;;5023435;28;20454;-77
2022/02/12 02:08:01;;;;;;;16.83;13.93;;;-1.30;99.90;;;;;;5021321;28;20501;-77
2022/02/12 02:10:30;;;;;;;15.00;13.70;;;-1.40;99.90;;;;;;5020528;28;20498;-77
2022/02/12 02:12:57;;;;;;;16.27;14.63;;;-1.40;99.90;;;;;;5019897;28;20845;-77
2022/02/12 02:15:24;;;;;;;15.77;14.17;;;-1.40;99.90;;;;;;5020708;28;20447;-77
2022/02/12 02:17:52;;;;;;;15.77;14.33;;;-1.50;99.90;;;;;;5018321;28;20471;-77
2022/02/12 02:20:19;;;;;;;16.10;14.50;;;-1.40;99.90;;;;;;5030522;28;20435;-77
2022/02/12 02:22:52;;;;;;;16.97;15.23;;;-1.50;99.90;;;;;;5030356;28;20466;-77
2022/02/12 02:25:19;;;;;;;16.47;14.77;;;-1.50;99.90;;;;;;5031044;28;20443;-77
2022/02/12 02:27:46;;;;;;;18.10;15.83;;;-1.50;99.90;;;;;;5019487;28;20451;-77
2022/02/12 02:30:16;;;;;;;17.70;15.90;;;-1.40;99.90;;;;;;5021510;28;20428;-77
2022/02/12 02:32:44;;;;;;;16.03;14.53;;;-1.40;99.90;;;;;;5022538;28;21023;-77
2022/02/12 02:35:11;;;;;;;16.50;14.80;;;-1.50;99.90;;;;;;5024336;28;20446;-77
2022/02/12 02:37:39;;;;;;;16.50;14.87;;;-1.50;99.90;;;;;;5020472;28;20581;-77
2022/02/12 02:40:13;;;;;;;15.50;13.90;;;-1.50;99.90;;;;;;5022595;28;20523;-77
2022/02/12 02:42:42;;;;;;;19.57;15.83;;;-1.60;99.90;;;;;;5023681;28;20463;-77
2022/02/12 02:45:10;;;;;;;17.00;14.97;;;-1.60;99.90;;;;;;5024346;28;20940;-77
2022/02/12 02:47:43;;;;;;;16.70;14.93;;;-1.60;99.90;;;;;;5024300;28;20531;-77
2022/02/12 02:56:02;;;;;;;16.83;15.10;;;-1.70;99.90;;;;;;5014073;28;20811;-77
2022/02/12 02:58:31;;;;;;;17.43;15.67;;;-1.70;99.90;;;;;;5019340;28;20483;-77
2022/02/12 03:00:58;;;;;;;18.10;16.07;;;-1.70;99.90;;;;;;5026345;28;20499;-77
2022/02/12 03:03:25;;;;;;;17.87;15.90;;;-1.70;99.90;;;;;;5020433;28;20505;-77
2022/02/12 03:05:52;;;;;;;16.60;15.10;;;-1.80;99.90;;;;;;5020469;28;20440;-77
2022/02/12 03:08:19;;;;;;;18.87;16.80;;;-1.80;99.90;;;;;;5023144;28;20579;-76
2022/02/12 03:10:47;;;;;;;20.53;17.43;;;-1.80;99.90;;;;;;5021837;28;20459;-77
2022/02/12 03:13:14;;;;;;;18.07;16.30;;;-1.80;99.90;;;;;;5022999;28;21065;-77
2022/02/12 03:15:41;;;;;;;18.80;16.30;;;-1.70;99.90;;;;;;5019495;28;20462;-77
2022/02/12 03:18:08;;;;;;;18.73;17.00;;;-1.80;99.90;;;;;;5016983;28;21031;-77
2022/02/12 03:20:36;;;;;;;18.27;16.40;;;-1.80;99.90;;;;;;5026269;28;20450;-77
2022/02/12 03:23:03;;;;;;;19.63;16.87;;;-1.90;99.90;;;;;;5020362;28;20486;-76
2022/02/12 03:25:30;;;;;;;18.53;16.70;;;-1.90;99.90;;;;;;5024485;28;20443;-77
2022/02/12 03:28:01;;;;;;;17.97;16.27;;;-1.80;99.90;;;;;;5021139;28;20582;-77
2022/02/12 03:30:28;;;;;;;18.80;16.93;;;-1.80;99.90;;;;;;5019684;28;20443;-77
2022/02/12 03:32:55;;;;;;;21.37;17.17;;;-1.80;99.90;;;;;;5022085;28;20471;-77
2022/02/12 03:35:23;;;;;;;18.23;16.43;;;-1.80;99.90;;;;;;5032271;28;20504;-77
2022/02/12 03:37:50;;;;;;;18.97;16.33;;;-1.80;99.90;;;;;;5030590;28;20470;-77
2022/02/12 03:40:18;;;;;;;18.10;16.00;;;-1.80;99.90;;;;;;5022775;28;20437;-76
2022/02/12 03:42:45;;;;;;;19.33;17.23;;;-1.80;99.90;;;;;;5014811;28;20471;-77
2022/02/12 03:45:14;;;;;;;18.53;16.73;;;-1.90;99.90;;;;;;5016662;28;20444;-77
2022/02/12 03:47:41;;;;;;;17.13;15.57;;;-1.90;99.90;;;;;;5023517;28;20452;-77
2022/02/12 03:50:08;;;;;;;19.00;17.10;;;-2.00;99.90;;;;;;5024659;28;20454;-77
2022/02/12 03:52:34;;;;;;;18.10;16.40;;;-2.00;99.90;;;;;;5019953;28;20540;-77
2022/02/12 03:55:01;;;;;;;23.07;17.07;;;-2.00;99.90;;;;;;5020177;28;20921;-77
2022/02/12 03:57:28;;;;;;;18.10;16.27;;;-2.00;99.90;;;;;;5000761;28;20481;-76
2022/02/12 03:59:55;;;;;;;19.97;17.97;;;-2.00;99.90;;;;;;5016772;28;20477;-77
2022/02/12 04:02:25;;;;;;;19.73;16.43;;;-1.90;99.90;;;;;;5020338;28;20479;-77
2022/02/12 04:04:52;;;;;;;18.70;16.53;;;-1.90;99.90;;;;;;5012990;28;20844;-77
2022/02/12 04:07:19;;;;;;;17.40;15.77;;;-1.90;99.90;;;;;;5010045;28;20582;-77
2022/02/12 04:09:46;;;;;;;19.10;17.10;;;-2.00;99.90;;;;;;5021140;28;20451;-77
2022/02/12 04:14:48;;;;;;;18.73;16.80;;;-1.90;99.90;;;;;;4989257;28;20917;-74
2022/02/12 04:17:15;;;;;;;20.17;17.17;;;-1.90;99.90;;;;;;4985114;28;20494;-74
2022/02/12 04:19:43;;;;;;;18.50;16.67;;;-1.90;99.90;;;;;;4997672;28;20856;-75
2022/02/12 04:22:10;;;;;;;20.13;18.00;;;-1.90;99.90;;;;;;5008068;28;20449;-76
2022/02/12 04:24:37;;;;;;;20.73;18.13;;;-1.90;99.90;;;;;;4986109;28;21025;-76
2022/02/12 04:27:04;;;;;;;22.13;19.37;;;-1.80;99.90;;;;;;4973103;28;20442;-76
2022/02/12 04:29:31;;;;;;;22.03;18.87;;;-1.80;99.90;;;;;;4974050;28;20526;-75
2022/02/12 04:31:58;;;;;;;24.63;20.43;;;-1.70;99.90;;;;;;4971311;28;20461;-74
2022/02/12 04:34:24;;;;;;;25.80;19.90;;;-1.70;99.90;;;;;;4972431;28;20891;-75
2022/02/12 04:36:53;;;;;;;31.27;20.97;;;-1.70;99.90;;;;;;4972512;28;20508;-75
2022/02/12 04:39:20;;;;;;;24.33;19.47;;;-1.70;99.90;;;;;;4979815;28;20477;-75
2022/02/12 04:41:47;;;;;;;26.63;21.53;;;-1.70;99.90;;;;;;4978194;28;20502;-75
2022/02/12 04:44:14;;;;;;;21.13;18.83;;;-1.70;99.90;;;;;;4995941;28;20548;-75
2022/02/12 04:46:41;;;;;;;24.77;20.53;;;-1.70;99.90;;;;;;4973102;28;20825;-75
2022/02/12 04:49:07;;;;;;;22.87;20.40;;;-1.70;99.90;;;;;;4973311;28;20441;-75
2022/02/12 04:51:34;;;;;;;30.37;20.27;;;-1.70;99.90;;;;;;4973691;28;20484;-75
2022/02/12 04:54:02;;;;;;;23.47;20.97;;;-1.80;99.90;;;;;;4973573;28;20489;-75
2022/02/12 04:56:29;;;;;;;74.90;23.00;;;-1.70;99.90;;;;;;4980098;28;20450;-75
2022/02/12 04:58:56;;;;;;;21.50;19.30;;;-1.80;99.90;;;;;;5002021;28;20480;-75
2022/02/12 05:01:24;;;;;;;22.90;20.43;;;-1.80;99.90;;;;;;4967626;28;21037;-75
2022/02/12 05:03:51;;;;;;;21.10;18.97;;;-1.70;99.90;;;;;;4967684;28;20470;-75
2022/02/12 05:06:19;;;;;;;22.40;20.00;;;-1.70;99.90;;;;;;4966940;28;20445;-75
2022/02/12 05:08:46;;;;;;;22.33;18.73;;;-1.80;99.90;;;;;;4963222;28;20435;-76
2022/02/12 05:11:15;;;;;;;21.03;18.90;;;-1.90;99.90;;;;;;4980806;28;20446;-75
2022/02/12 05:13:41;;;;;;;51.80;21.77;;;-1.90;99.90;;;;;;4964054;28;20490;-76
2022/02/12 05:16:08;;;;;;;27.17;19.23;;;-1.90;99.90;;;;;;4967483;28;20496;-75
2022/02/12 05:18:35;;;;;;;27.23;19.87;;;-1.90;99.90;;;;;;4965927;28;20476;-75
2022/02/12 05:21:02;;;;;;;23.30;20.83;;;-1.90;99.90;;;;;;4965922;28;20426;-75
2022/02/12 05:23:29;;;;;;;22.10;19.80;;;-1.90;99.90;;;;;;4967657;28;20469;-75
2022/02/12 05:25:56;;;;;;;22.20;20.00;;;-1.90;99.90;;;;;;4978595;28;20437;-76
2022/02/12 05:28:24;;;;;;;20.50;18.43;;;-1.90;99.90;;;;;;4972703;28;20871;-76
2022/02/12 05:30:51;;;;;;;22.90;20.10;;;-1.90;99.90;;;;;;4971760;28;20503;-76
2022/02/12 05:33:17;;;;;;;19.53;17.77;;;-2.00;99.90;;;;;;5001995;28;20473;-74
2022/02/12 05:35:45;;;;;;;19.87;18.07;;;-2.10;99.90;;;;;;4980780;28;20520;-75
2022/02/12 05:38:12;;;;;;;21.23;18.63;;;-2.10;99.90;;;;;;4984965;28;21267;-76
2022/02/12 05:40:39;;;;;;;19.97;18.17;;;-2.10;99.90;;;;;;4982755;28;20962;-75
2022/02/12 05:43:06;;;;;;;36.13;19.57;;;-2.10;99.90;;;;;;4991750;28;20481;-75
2022/02/12 05:45:34;;;;;;;20.17;18.27;;;-2.10;99.90;;;;;;4997007;28;20460;-74
2022/02/12 05:48:01;;;;;;;20.30;18.27;;;-2.20;99.90;;;;;;4975758;28;20500;-75
2022/02/12 05:50:29;;;;;;;19.83;17.93;;;-2.20;99.90;;;;;;4973919;28;20503;-76
2022/02/12 05:52:58;;;;;;;95.43;20.90;;;-2.20;99.90;;;;;;4975542;28;20469;-75
2022/02/12 05:55:25;;;;;;;23.70;19.13;;;-2.30;99.90;;;;;;5000535;28;20453;-75
2022/02/12 05:57:58;;;;;;;30.70;20.40;;;-2.20;99.90;;;;;;4982615;28;20444;-76
2022/02/12 06:00:25;;;;;;;21.03;19.03;;;-2.20;99.90;;;;;;4983882;28;20886;-77
2022/02/12 06:02:53;;;;;;;62.90;22.03;;;-2.30;99.90;;;;;;4981878;28;20473;-76
2022/02/12 06:05:21;;;;;;;29.53;20.00;;;-2.30;99.90;;;;;;4984063;28;20978;-79
2022/02/12 06:07:48;;;;;;;36.40;20.43;;;-2.30;99.90;;;;;;4982748;28;20461;-78
2022/02/12 06:10:15;;;;;;;21.57;19.40;;;-2.40;99.90;;;;;;4998978;28;20454;-77
2022/02/12 06:12:42;;;;;;;20.97;18.97;;;-2.40;99.90;;;;;;4984461;28;20678;-76
2022/02/12 06:15:10;;;;;;;20.67;18.73;;;-2.30;99.90;;;;;;4985050;28;20441;-76
2022/02/12 06:17:37;;;;;;;37.80;20.57;;;-2.40;99.90;;;;;;4977792;28;20449;-76
2022/02/12 06:20:06;;;;;;;23.83;19.23;;;-2.40;99.90;;;;;;4981744;28;20484;-76
2022/02/12 06:22:33;;;;;;;21.87;19.53;;;-2.40;99.90;;;;;;4980466;28;20876;-76
2022/02/12 06:25:01;;;;;;;21.43;19.33;;;-2.40;99.90;;;;;;4984292;28;20457;-77
2022/02/12 06:27:28;;;;;;;21.50;19.40;;;-2.40;99.90;;;;;;4992640;28;20453;-77
2022/02/12 06:29:55;;;;;;;25.23;20.43;;;-2.40;99.90;;;;;;4981927;28;20441;-79
2022/02/12 06:32:22;;;;;;;29.40;19.70;;;-2.40;99.90;;;;;;4980762;28;20441;-79
2022/02/12 06:34:51;;;;;;;20.43;18.63;;;-2.40;99.90;;;;;;4984416;28;20449;-76
2022/02/12 06:37:20;;;;;;;26.13;21.43;;;-2.50;99.90;;;;;;4982517;28;21021;-76
2022/02/12 06:39:47;;;;;;;23.70;21.30;;;-2.50;99.90;;;;;;4973373;28;20826;-76
2022/02/12 06:42:14;;;;;;;34.30;23.57;;;-2.50;99.90;;;;;;4972221;28;20483;-76
2022/02/12 06:44:41;;;;;;;23.97;21.43;;;-2.50;99.90;;;;;;4972645;28;20472;-76
2022/02/12 06:47:08;;;;;;;22.60;19.87;;;-2.40;99.90;;;;;;4974784;28;20465;-76
2022/02/12 06:49:35;;;;;;;22.60;20.40;;;-2.50;99.90;;;;;;4974534;28;21020;-76
2022/02/12 06:52:02;;;;;;;22.80;19.53;;;-2.50;99.90;;;;;;4988312;28;20456;-76
2022/02/12 06:54:30;;;;;;;24.13;20.60;;;-2.40;99.90;;;;;;4987379;28;20480;-76
2022/02/12 06:56:58;;;;;;;22.67;20.40;;;-2.40;99.90;;;;;;4971294;28;20512;-75
2022/02/12 06:59:25;;;;;;;22.10;19.90;;;-2.40;99.90;;;;;;4989716;28;20536;-76
2022/02/12 07:01:52;;;;;;;21.47;19.37;;;-2.30;99.90;;;;;;4974478;28;20492;-76
2022/02/12 07:04:19;;;;;;;21.33;18.87;;;-2.40;99.90;;;;;;4993453;28;21068;-76
2022/02/12 07:06:46;;;;;;;22.03;19.87;;;-2.40;99.90;;;;;;4972843;28;20843;-76
2022/02/12 07:09:13;;;;;;;22.17;19.87;;;-2.40;99.90;;;;;;4988889;28;20777;-76
2022/02/12 07:11:41;;;;;;;25.10;20.77;;;-2.30;99.90;;;;;;4987920;28;20602;-76
2022/02/12 07:14:08;;;;;;;23.33;20.70;;;-2.20;99.90;;;;;;4972907;28;20543;-76
2022/02/12 07:16:35;;;;;;;21.97;19.73;;;-2.10;99.90;;;;;;4972839;28;20519;-76
2022/02/12 07:19:02;;;;;;;21.10;19.00;;;-2.10;99.90;;;;;;4975639;28;20477;-76
2022/02/12 07:21:31;;;;;;;20.90;18.70;;;-2.00;99.90;;;;;;4975760;28;20445;-76
2022/02/12 07:23:57;;;;;;;20.93;19.03;;;-2.00;99.90;;;;;;4974732;28;20461;-76
2022/02/12 07:26:24;;;;;;;20.97;18.67;;;-1.80;99.90;;;;;;4974687;28;21067;-76
2022/02/12 07:28:53;;;;;;;22.83;18.47;;;-1.80;99.90;;;;;;4987254;28;20463;-74
2022/02/12 07:31:20;;;;;;;22.03;19.73;;;-1.90;99.90;;;;;;4975881;28;20450;-75
2022/02/12 07:33:47;;;;;;;21.80;19.53;;;-1.90;99.90;;;;;;4991637;28;20469;-76
2022/02/12 07:36:14;;;;;;;20.83;18.97;;;-1.80;99.90;;;;;;4979008;28;20437;-77
2022/02/12 07:38:41;;;;;;;20.50;18.47;;;-1.70;99.90;;;;;;4987505;28;20442;-76
2022/02/12 07:41:07;;;;;;;20.80;18.60;;;-1.70;99.90;;;;;;4985081;28;20785;-77
2022/02/12 07:43:35;;;;;;;21.23;19.13;;;-1.60;99.90;;;;;;4978481;28;20511;-77
2022/02/12 07:46:04;;;;;;;21.13;19.13;;;-1.30;99.90;;;;;;4986739;28;20510;-82
2022/02/12 07:48:31;;;;;;;21.03;19.03;;;-1.00;99.90;;;;;;4999414;28;20458;-77
2022/02/12 07:50:57;;;;;;;21.43;19.17;;;-0.70;99.90;;;;;;4991041;28;20516;-75
2022/02/12 07:53:24;;;;;;;19.60;17.77;;;-0.40;99.90;;;;;;4982062;28;20452;-75
2022/02/12 07:55:51;;;;;;;20.53;18.43;;;-0.10;99.90;;;;;;4999112;28;20544;-75
2022/02/12 07:58:19;;;;;;;20.50;18.30;;;0.20;99.90;;;;;;4982917;28;20437;-76
2022/02/12 08:00:46;;;;;;;19.30;17.60;;;0.40;99.90;;;;;;4984355;28;20488;-75
2022/02/12 08:03:15;;;;;;;19.57;17.83;;;0.70;99.90;;;;;;4983021;28;20493;-75
2022/02/12 08:05:41;;;;;;;20.00;17.57;;;1.00;99.90;;;;;;4986415;28;20437;-75
2022/02/12 08:08:08;;;;;;;19.80;17.10;;;1.20;99.90;;;;;;4981469;28;20760;-75
2022/02/12 08:13:20;;;;;;;20.00;17.73;;;1.40;99.90;;;;;;4973344;28;20914;-78
2022/02/12 08:15:46;;;;;;;18.07;16.60;;;1.60;99.90;;;;;;4974249;28;20992;-78
2022/02/12 08:18:15;;;;;;;19.67;17.47;;;1.90;99.90;;;;;;4976686;28;20490;-78
2022/02/12 08:20:42;;;;;;;19.20;16.70;;;2.30;99.90;;;;;;4994003;28;20465;-77
2022/02/12 08:23:09;;;;;;;18.77;17.17;;;2.80;99.90;;;;;;4981032;28;20218;-77
2022/02/12 08:25:37;;;;;;;18.87;17.13;;;3.00;99.90;;;;;;4980239;28;20476;-77
2022/02/12 08:28:04;;;;;;;19.10;17.30;;;3.50;99.90;;;;;;4994554;28;20202;-76
2022/02/12 08:30:30;;;;;;;21.17;17.43;;;3.90;99.90;;;;;;4985279;28;20199;-77
2022/02/12 08:32:57;;;;;;;18.80;16.90;;;4.20;99.90;;;;;;4982300;28;20217;-78
2022/02/12 08:35:26;;;;;;;18.43;16.80;;;4.40;99.90;;;;;;5001767;28;20253;-77
2022/02/12 08:37:52;;;;;;;18.47;16.77;;;4.50;99.90;;;;;;4986226;28;20204;-78
2022/02/12 08:40:20;;;;;;;18.93;16.67;;;4.50;99.90;;;;;;4983457;28;20309;-77
2022/02/12 08:42:48;;;;;;;16.77;15.27;;;4.60;99.90;;;;;;4985527;28;20260;-77
2022/02/12 08:45:15;;;;;;;17.53;15.70;;;4.50;99.90;;;;;;4983375;28;20206;-81
2022/02/12 08:47:44;;;;;;;19.13;16.97;;;4.70;99.90;;;;;;4969935;28;20202;-78
2022/02/12 08:50:11;;;;;;;16.43;14.77;;;4.80;99.90;;;;;;4976231;28;20198;-78
2022/02/12 08:52:40;;;;;;;16.57;15.07;;;4.90;99.90;;;;;;4981994;28;20656;-75
2022/02/12 08:55:08;;;;;;;15.40;13.90;;;5.40;99.90;;;;;;4973873;28;20229;-75
2022/02/12 08:57:35;;;;;;;13.00;11.57;;;5.40;99.90;;;;;;4985158;28;20201;-76
2022/02/12 09:00:03;;;;;;;13.90;9.40;;;5.80;99.90;;;;;;4979700;28;20229;-76
2022/02/12 09:02:30;;;;;;;14.53;8.57;;;5.90;99.90;;;;;;4991015;28;20201;-75
2022/02/12 09:04:56;;;;;;;12.67;9.17;;;6.00;99.90;;;;;;4982852;28;20218;-76
2022/02/12 09:07:23;;;;;;;13.67;8.80;;;6.20;99.90;;;;;;4985706;28;20645;-75
2022/02/12 09:09:54;;;;;;;13.67;9.50;;;6.30;99.90;;;;;;4981454;28;20331;-76
2022/02/12 09:12:21;;;;;;;12.63;9.13;;;6.40;99.90;;;;;;4987204;28;20209;-75
2022/02/12 09:14:47;;;;;;;13.97;9.30;;;6.50;99.90;;;;;;4971891;28;20637;-76
2022/02/12 09:17:14;;;;;;;12.53;8.70;;;6.10;99.90;;;;;;4981089;28;20199;-75
2022/02/12 09:19:41;;;;;;;11.93;8.40;;;6.30;99.90;;;;;;4976245;28;20214;-76
2022/02/12 09:22:08;;;;;;;12.70;8.90;;;6.30;99.90;;;;;;4979532;28;20262;-76
2022/02/12 09:24:35;;;;;;;11.90;8.43;;;6.30;99.90;;;;;;4977980;28;20227;-76
2022/02/12 09:27:03;;;;;;;12.13;9.53;;;6.20;99.90;;;;;;4982068;28;20238;-76
2022/02/12 09:29:30;;;;;;;12.23;8.03;;;6.00;99.90;;;;;;4994796;28;20261;-76
2022/02/12 09:31:57;;;;;;;12.17;8.23;;;5.90;99.90;;;;;;4982219;28;20271;-76
2022/02/12 09:34:23;;;;;;;12.33;7.60;;;6.00;99.90;;;;;;4983786;28;20702;-76
2022/02/12 09:36:50;;;;;;;9.37;7.50;;;6.40;99.90;;;;;;4982964;28;20235;-76
2022/02/12 09:39:17;;;;;;;11.73;8.00;;;6.70;99.90;;;;;;4983542;28;20204;-76
2022/02/12 09:41:45;;;;;;;10.97;7.90;;;6.90;99.90;;;;;;4985144;28;20210;-76
2022/02/12 09:44:13;;;;;;;11.13;8.20;;;7.00;99.90;;;;;;4980762;28;20609;-76
2022/02/12 09:47:06;;;;;;;9.27;7.53;;;6.80;99.90;;;;;;4980846;28;20228;-76
2022/02/12 09:49:34;;;;;;;10.60;7.60;;;6.80;99.90;;;;;;4989180;28;20200;-75
2022/02/12 09:52:02;;;;;;;13.40;12.00;;;6.90;99.90;;;;;;4979356;28;20745;-76
2022/02/12 09:54:30;;;;;;;13.40;11.13;;;6.80;99.90;;;;;;4978849;28;20234;-76
2022/02/12 09:56:57;;;;;;;12.93;11.03;;;6.90;99.90;;;;;;4996259;28;20212;-76
2022/02/12 09:59:25;;;;;;;13.33;12.00;;;6.80;99.90;;;;;;4980149;28;20538;-76
2022/02/12 10:01:53;;;;;;;15.17;11.33;;;6.60;99.90;;;;;;4979834;28;20209;-75
2022/02/12 10:04:21;;;;;;;12.20;11.00;;;6.50;99.90;;;;;;4980242;28;20286;-75
2022/02/12 10:06:48;;;;;;;13.93;12.53;;;6.40;99.90;;;;;;4977181;28;20302;-76
2022/02/12 10:09:15;;;;;;;15.23;13.63;;;6.00;99.90;;;;;;4997278;28;20276;-75
2022/02/12 10:11:44;;;;;;;13.13;8.67;;;5.80;99.90;;;;;;4983851;28;20202;-75
2022/02/12 10:14:13;;;;;;;13.50;12.13;;;5.80;99.90;;;;;;5016714;23;20233;-78
2022/02/12 10:16:52;;;;;;;14.00;10.43;;;5.70;99.90;;;;;;5005258;28;20592;-78
2022/02/12 10:19:27;;;;;;;11.00;9.47;;;5.60;99.90;;;;;;4994889;28;20201;-79
2022/02/12 10:22:05;;;;;;;13.97;9.10;;;5.70;99.90;;;;;;5001332;28;20194;-79
2022/02/12 10:24:53;;;;;;;13.80;12.10;;;5.60;99.90;;;;;;4989850;28;20267;-78
2022/02/12 10:27:21;;;;;;;17.77;13.03;;;5.60;99.90;;;;;;4999854;28;20261;-79
2022/02/12 10:29:52;;;;;;;12.87;11.67;;;5.50;99.90;;;;;;5002556;28;20217;-79
2022/02/12 10:32:23;;;;;;;10.20;9.00;;;5.60;99.90;;;;;;5001498;28;20202;-79
2022/02/12 10:34:51;;;;;;;13.37;9.20;;;5.60;99.90;;;;;;5002546;28;20716;-79
2022/02/12 10:37:22;;;;;;;10.07;8.40;;;5.60;99.90;;;;;;5003092;28;20206;-79
2022/02/12 10:39:55;;;;;;;12.93;11.63;;;5.60;99.90;;;;;;5002375;28;20220;-79
2022/02/12 10:42:23;;;;;;;13.43;12.03;;;5.50;99.90;;;;;;5001771;28;20207;-78
2022/02/12 10:44:50;;;;;;;13.73;11.73;;;5.50;99.90;;;;;;5006032;28;20218;-78
2022/02/12 10:47:18;;;;;;;13.03;11.73;;;5.60;99.90;;;;;;5002211;28;20198;-79
2022/02/12 10:49:48;;;;;;;12.53;11.07;;;5.60;99.90;;;;;;4999529;28;20678;-79
2022/02/12 10:52:15;;;;;;;11.23;10.30;;;5.60;99.90;;;;;;4997215;28;20261;-78
2022/02/12 10:54:43;;;;;;;12.97;11.17;;;5.60;99.90;;;;;;5005966;28;20285;-78
2022/02/12 10:57:11;;;;;;;13.57;11.10;;;5.50;99.90;;;;;;4995443;28;20306;-78
2022/02/12 10:59:42;;;;;;;12.37;10.03;;;5.50;99.90;;;;;;5007199;28;20273;-78
2022/02/12 11:02:10;;;;;;;12.27;11.07;;;5.60;99.90;;;;;;5005780;28;20201;-79
2022/02/12 11:04:40;;;;;;;11.90;10.43;;;5.60;99.90;;;;;;5008208;28;20215;-78
2022/02/12 11:07:15;;;;;;;11.70;10.60;;;5.70;99.90;;;;;;5008788;28;20284;-78
2022/02/12 11:09:45;;;;;;;9.77;8.97;;;5.70;99.90;;;;;;5004712;28;20264;-79
2022/02/12 11:12:12;;;;;;;11.23;10.13;;;5.90;99.90;;;;;;5005969;28;20225;-79
2022/02/12 11:14:43;;;;;;;10.63;9.63;;;6.00;99.90;;;;;;5000698;28;20269;-78
2022/02/12 11:17:15;;;;;;;13.33;11.23;;;6.00;99.90;;;;;;5005026;28;20724;-79
2022/02/12 11:19:44;;;;;;;12.53;11.33;;;6.00;99.90;;;;;;4997398;28;20208;-76
2022/02/12 11:22:12;;;;;;;14.60;11.63;;;6.00;99.90;;;;;;5000017;28;20212;-78
2022/02/12 11:24:42;;;;;;;10.20;9.30;;;6.00;99.90;;;;;;5006043;28;20209;-78
2022/02/12 11:27:21;;;;;;;9.27;8.63;;;6.10;99.90;;;;;;5005751;28;20201;-78
2022/02/12 11:29:50;;;;;;;11.37;8.80;;;6.00;99.90;;;;;;5005604;28;20197;-78
2022/02/12 11:32:20;;;;;;;8.57;7.93;;;6.00;99.90;;;;;;5005014;28;20197;-79
2022/02/12 11:35:27;;;;;;;8.70;8.10;;;6.00;99.90;;;;;;5005773;28;20248;-78
2022/02/12 11:37:58;;;;;;;8.17;7.50;;;6.00;99.90;;;;;;5007818;28;20208;-79
2022/02/12 11:40:28;;;;;;;8.30;7.70;;;6.10;99.90;;;;;;5003966;28;20283;-79
2022/02/12 11:42:56;;;;;;;8.60;7.80;;;6.20;99.90;;;;;;5007230;28;20193;-78
2022/02/12 11:45:33;;;;;;;8.67;7.50;;;6.30;99.90;;;;;;5001487;28;20244;-78
2022/02/12 11:48:30;;;;;;;8.20;7.60;;;6.40;99.90;;;;;;4999699;28;20414;-80
2022/02/12 11:51:02;;;;;;;8.37;7.73;;;6.50;99.90;;;;;;4976436;28;20732;-80
2022/02/12 11:53:36;;;;;;;8.30;7.70;;;6.40;99.90;;;;;;4993351;28;20224;-81
2022/02/12 11:56:05;;;;;;;8.20;7.60;;;6.50;99.90;;;;;;4991887;28;20450;-77
2022/02/12 11:59:08;;;;;;;7.60;7.07;;;6.50;99.90;;;;;;4992146;28;20572;-77
2022/02/12 12:01:46;;;;;;;8.93;8.20;;;6.50;99.90;;;;;;4999707;28;20220;-77
2022/02/12 12:04:15;;;;;;;8.27;7.67;;;6.60;99.90;;;;;;4990928;28;20258;-77
2022/02/12 12:07:11;;;;;;;8.10;7.53;;;6.60;99.90;;;;;;4993290;28;20256;-75
2022/02/12 12:10:00;;;;;;;8.60;8.00;;;6.60;99.90;;;;;;4994482;28;20212;-75
2022/02/12 12:12:27;;;;;;;8.70;8.00;;;6.60;99.90;;;;;;5007997;28;20197;-76
2022/02/12 12:15:15;;;;;;;8.73;8.03;;;6.60;99.90;;;;;;5002040;28;20228;-78
2022/02/12 12:17:43;;;;;;;8.70;8.00;;;6.70;99.90;;;;;;4995959;28;20284;-76
2022/02/12 12:20:11;;;;;;;8.63;7.93;;;6.80;99.90;;;;;;5002272;28;20623;-75
2022/02/12 12:22:38;;;;;;;8.50;7.90;;;6.80;99.90;;;;;;5001012;28;20235;-75
2022/02/12 12:25:08;;;;;;;8.47;7.87;;;6.80;99.90;;;;;;5002601;28;20218;-77
2022/02/12 12:27:35;;;;;;;8.60;8.00;;;6.70;99.90;;;;;;4998336;28;20550;-77
2022/02/12 12:33:00;;;;;;;8.63;8.03;;;6.70;99.90;;;;;;5000851;28;20217;-77
2022/02/12 12:35:28;;;;;;;8.60;8.10;;;6.80;99.90;;;;;;5004407;28;20190;-76
2022/02/12 12:37:59;;;;;;;8.30;7.80;;;6.80;99.90;;;;;;4995776;28;20314;-78
2022/02/12 12:40:31;;;;;;;8.60;8.00;;;6.90;99.90;;;;;;4993518;28;20211;-76
2022/02/12 12:43:02;;;;;;;9.63;8.83;;;6.90;99.90;;;;;;4992471;28;20237;-77
2022/02/12 12:45:30;;;;;;;9.10;8.50;;;7.00;99.90;;;;;;4989749;28;20573;-78
2022/02/12 12:47:57;;;;;;;9.87;8.97;;;7.00;99.90;;;;;;4991839;28;20202;-79
2022/02/12 12:50:34;;;;;;;9.43;8.83;;;7.00;99.90;;;;;;4987436;28;20294;-77
2022/02/12 12:53:03;;;;;;;9.80;9.00;;;7.00;99.90;;;;;;4991415;28;20290;-77